Time;durP1;ratioP1;P1;durP2;ratioP2;P2;SDS_P1;SDS_P2;PMS_P1;PMS_P2;Temp;Humidity;BMP_temperature;BMP_pressure;BME280_temperature;BME280_humidity;BME280_pressure;Samples;Min_cycle;Max_cycle;Signal;HPM_P1;HPM_P2
2022/03/22 00:01:00;;;;;;;19.35;14.48;;;;;;;2.48;83.48;97173.56;4994606;28;24970;-73
2022/03/22 00:03:26;;;;;;;21.05;14.60;;;;;;;2.49;82.81;97181.25;4994829;28;24420;-73
2022/03/22 00:05:54;;;;;;;23.23;14.93;;;;;;;2.66;82.08;97174.25;4994597;28;24417;-73
2022/03/22 00:08:21;;;;;;;24.77;16.73;;;;;;;2.37;82.56;97181.31;4994269;28;24507;-74
2022/03/22 00:10:48;;;;;;;27.23;19.40;;;;;;;2.15;86.43;97176.41;4994415;28;24562;-73
2022/03/22 00:13:14;;;;;;;22.92;16.90;;;;;;;2.15;86.86;97175.53;4994295;28;24807;-73
2022/03/22 00:15:41;;;;;;;20.33;16.10;;;;;;;2.20;87.42;97178.06;4994516;28;24432;-73
2022/03/22 00:18:08;;;;;;;19.27;14.65;;;;;;;2.23;84.58;97178.06;4994430;28;24592;-73
2022/03/22 00:20:35;;;;;;;19.50;15.55;;;;;;;2.26;84.73;97170.34;4994138;28;24548;-73
2022/03/22 00:23:02;;;;;;;22.85;15.15;;;;;;;2.22;83.67;97171.22;4994306;28;24431;-73
2022/03/22 00:25:29;;;;;;;20.03;15.63;;;;;;;2.24;83.90;97172.91;4994120;28;24409;-73
2022/03/22 00:27:57;;;;;;;25.33;15.55;;;;;;;2.18;83.84;97170.41;4994194;28;24455;-73
2022/03/22 00:30:25;;;;;;;18.73;14.70;;;;;;;2.23;84.79;97170.38;4994115;28;24532;-73
2022/03/22 00:32:54;;;;;;;27.92;14.48;;;;;;;2.22;84.25;97166.94;4994177;28;24445;-73
2022/03/22 00:35:23;;;;;;;21.50;13.95;;;;;;;2.31;83.81;97176.28;4993899;28;24417;-73
2022/03/22 00:37:51;;;;;;;16.08;13.50;;;;;;;2.36;84.39;97169.41;4994213;28;24510;-73
2022/03/22 00:40:19;;;;;;;18.93;14.57;;;;;;;2.43;83.81;97165.94;4994019;28;24476;-73
2022/03/22 00:42:46;;;;;;;16.25;12.70;;;;;;;2.48;84.37;97174.41;4994195;28;24479;-74
2022/03/22 00:45:16;;;;;;;14.68;11.82;;;;;;;2.15;89.56;97166.19;4993947;28;24501;-73
2022/03/22 00:47:43;;;;;;;14.25;11.57;;;;;;;2.22;89.62;97164.41;4993810;28;24477;-73
2022/03/22 00:50:10;;;;;;;12.80;11.47;;;;;;;2.23;89.64;97166.13;4993864;28;24923;-74
2022/03/22 00:52:36;;;;;;;17.73;13.65;;;;;;;2.22;87.99;97169.50;4993842;28;24432;-73
2022/03/22 00:55:05;;;;;;;18.70;12.75;;;;;;;2.24;88.58;97155.03;4993940;28;24519;-73
2022/03/22 00:57:33;;;;;;;18.30;13.02;;;;;;;2.28;88.45;97159.25;4993695;28;24460;-73
2022/03/22 01:00:02;;;;;;;18.38;12.63;;;;;;;2.25;87.84;97158.44;4993457;28;24453;-73
2022/03/22 01:02:29;;;;;;;15.30;12.65;;;;;;;2.15;86.65;97157.63;4993021;28;24424;-74
2022/03/22 01:04:56;;;;;;;15.77;12.68;;;;;;;2.13;87.29;97150.00;4993509;28;24954;-73
2022/03/22 01:07:22;;;;;;;16.65;12.93;;;;;;;2.12;86.95;97150.00;5023280;23;24437;-76
2022/03/22 01:09:49;;;;;;;12.95;11.30;;;;;;;2.07;85.43;97150.03;5052710;28;24415;-75
2022/03/22 01:12:16;;;;;;;14.63;11.27;;;;;;;2.01;83.84;97154.34;5052991;28;24435;-75
2022/03/22 01:14:44;;;;;;;15.73;12.00;;;;;;;1.86;84.73;97151.03;5052950;28;24901;-76
2022/03/22 01:17:10;;;;;;;14.25;11.10;;;;;;;1.73;85.77;97143.44;5052521;28;24940;-76
2022/03/22 01:19:37;;;;;;;14.30;12.50;;;;;;;1.66;86.39;97148.59;5052749;28;24415;-75
2022/03/22 01:22:05;;;;;;;15.18;11.63;;;;;;;1.65;82.73;97149.44;5056972;28;24478;-77
2022/03/22 01:24:32;;;;;;;16.50;12.98;;;;;;;1.33;85.49;97144.50;5055921;28;24430;-76
2022/03/22 01:26:58;;;;;;;14.48;12.43;;;;;;;1.19;86.65;97143.75;5054055;28;24820;-75
2022/03/22 01:29:25;;;;;;;14.90;12.10;;;;;;;1.04;89.34;97143.75;5052359;28;24970;-75
2022/03/22 01:31:53;;;;;;;16.88;12.05;;;;;;;1.11;89.61;97138.66;5052681;28;24868;-75
2022/03/22 01:34:20;;;;;;;15.85;12.93;;;;;;;1.17;91.31;97141.16;5052316;28;24975;-75
2022/03/22 01:36:46;;;;;;;17.30;13.50;;;;;;;1.13;91.78;97146.31;5052622;28;24487;-75
2022/03/22 01:39:13;;;;;;;21.38;15.38;;;;;;;0.90;95.50;97134.47;5053746;28;24650;-77
2022/03/22 01:41:39;;;;;;;18.98;14.50;;;;;;;0.93;97.02;97137.03;5056707;28;24473;-77
2022/03/22 01:44:06;;;;;;;18.15;14.60;;;;;;;1.00;97.02;97135.28;5056334;28;24428;-76
2022/03/22 01:46:36;;;;;;;18.00;13.98;;;;;;;1.08;96.36;97138.66;5056914;28;24505;-77
2022/03/22 01:49:04;;;;;;;20.08;14.20;;;;;;;1.16;94.98;97129.28;5057599;28;24956;-77
2022/03/22 01:51:32;;;;;;;16.73;13.43;;;;;;;1.26;94.27;97135.19;5057609;28;24415;-77
2022/03/22 01:53:59;;;;;;;14.63;11.63;;;;;;;1.18;94.61;97122.44;5055595;28;24439;-77
2022/03/22 01:56:25;;;;;;;13.50;11.83;;;;;;;1.30;94.56;97121.56;5055238;28;24519;-77
2022/03/22 01:58:55;;;;;;;15.85;12.52;;;;;;;1.26;92.37;97112.22;5055505;28;24785;-77
2022/03/22 02:06:53;;;;;;;15.90;11.93;;;;;;;1.00;91.90;97106.38;5056292;28;24407;-77
2022/03/22 02:09:20;;;;;;;15.50;12.10;;;;;;;0.89;92.58;97108.94;5056230;28;24976;-77
2022/03/22 02:11:47;;;;;;;13.35;11.60;;;;;;;0.81;93.15;97103.03;5057192;28;24434;-77
2022/03/22 02:14:13;;;;;;;14.95;11.93;;;;;;;0.85;93.92;97105.56;5054749;28;24450;-76
2022/03/22 02:16:40;;;;;;;18.13;13.32;;;;;;;0.95;94.50;97093.63;5052164;28;24434;-76
2022/03/22 02:19:10;;;;;;;24.83;18.67;;;;;;;1.05;92.94;97102.97;5051999;28;24972;-76
2022/03/22 02:21:39;;;;;;;17.13;13.15;;;;;;;0.85;91.16;97100.47;5052004;28;24978;-76
2022/03/22 02:24:08;;;;;;;16.77;12.90;;;;;;;0.81;93.00;97100.47;5052124;28;24971;-76
2022/03/22 02:26:34;;;;;;;18.17;13.07;;;;;;;0.79;94.02;97102.22;5051980;28;24453;-76
2022/03/22 02:29:01;;;;;;;14.68;12.60;;;;;;;0.84;95.08;97103.03;5051502;28;24431;-76
2022/03/22 02:31:30;;;;;;;21.40;12.88;;;;;;;0.79;94.76;97105.59;5051984;28;24488;-75
2022/03/22 02:33:57;;;;;;;17.70;12.10;;;;;;;0.72;94.25;97107.31;5051613;28;24446;-76
2022/03/22 02:36:24;;;;;;;13.33;11.93;;;;;;;0.69;94.67;97101.38;5051667;28;24414;-76
2022/03/22 02:38:52;;;;;;;14.05;12.32;;;;;;;0.75;94.04;97103.91;5051897;28;24423;-76
2022/03/22 02:41:21;;;;;;;16.27;12.85;;;;;;;0.51;94.48;97107.34;5051674;28;24984;-76
2022/03/22 02:43:50;;;;;;;15.73;13.27;;;;;;;0.28;95.95;97112.50;5051480;28;24415;-75
2022/03/22 02:46:16;;;;;;;15.73;14.13;;;;;;;0.05;97.57;97104.88;5051352;28;24459;-76
2022/03/22 02:48:43;;;;;;;17.17;13.53;;;;;;;0.18;98.62;97111.63;5051004;28;25002;-76
2022/03/22 02:51:09;;;;;;;16.42;13.48;;;;;;;0.41;97.27;97113.34;5050941;28;24419;-76
2022/03/22 02:53:36;;;;;;;17.55;13.48;;;;;;;0.55;96.02;97115.84;5051391;28;24443;-76
2022/03/22 02:56:02;;;;;;;22.85;13.38;;;;;;;0.66;94.98;97116.69;5051668;28;24434;-76
2022/03/22 02:58:30;;;;;;;19.55;13.07;;;;;;;0.72;93.69;97107.31;5051599;28;24430;-76
2022/03/22 03:00:57;;;;;;;16.45;12.45;;;;;;;0.79;93.37;97112.41;5051221;28;24430;-76
2022/03/22 03:03:23;;;;;;;17.83;12.55;;;;;;;0.84;92.36;97115.78;5051242;28;24776;-76
2022/03/22 03:05:50;;;;;;;17.48;13.90;;;;;;;0.73;92.21;97114.09;5051597;28;24932;-76
2022/03/22 03:08:16;;;;;;;17.10;13.77;;;;;;;0.70;93.17;97126.88;5051041;28;24845;-75
2022/03/22 03:10:43;;;;;;;17.20;13.55;;;;;;;0.67;93.45;97123.50;5051457;28;24811;-76
2022/03/22 03:13:10;;;;;;;17.40;13.93;;;;;;;0.69;90.62;97127.72;5051391;28;24450;-76
2022/03/22 03:15:37;;;;;;;18.80;13.48;;;;;;;0.53;90.35;97125.22;5051166;28;24511;-75
2022/03/22 03:18:04;;;;;;;16.23;13.30;;;;;;;0.30;94.76;97125.22;5050791;28;24423;-76
2022/03/22 03:20:31;;;;;;;18.83;13.43;;;;;;;0.27;94.99;97127.78;5050760;28;24781;-75
2022/03/22 03:22:57;;;;;;;21.00;13.57;;;;;;;0.15;96.02;97126.94;5050965;28;24426;-76
2022/03/22 03:25:24;;;;;;;14.60;13.00;;;;;;;0.02;96.23;97132.03;5051520;28;24442;-76
2022/03/22 03:27:50;;;;;;;18.67;12.95;;;;;;;0.15;96.56;97133.72;5050943;28;24435;-76
2022/03/22 03:30:17;;;;;;;14.33;12.30;;;;;;;0.24;96.19;97134.56;5050872;28;24991;-75
2022/03/22 03:32:45;;;;;;;15.05;12.90;;;;;;;0.34;95.55;97137.97;5051108;28;24423;-76
2022/03/22 03:35:11;;;;;;;18.10;12.87;;;;;;;0.42;94.55;97138.81;5050724;28;24880;-76
2022/03/22 03:37:41;;;;;;;14.90;12.47;;;;;;;0.50;93.85;97136.25;5050925;28;24435;-75
2022/03/22 03:40:09;;;;;;;14.82;12.60;;;;;;;0.47;94.01;97142.19;5050455;28;25043;-76
2022/03/22 03:42:41;;;;;;;18.05;12.00;;;;;;;0.50;95.21;97135.41;5050768;28;24442;-76
2022/03/22 03:47:55;;;;;;;13.98;11.88;;;;;;;0.51;94.01;97134.56;5050456;28;24433;-76
2022/03/22 03:50:22;;;;;;;17.27;12.10;;;;;;;0.50;93.39;97135.41;5050226;28;24510;-75
2022/03/22 03:52:48;;;;;;;15.38;11.20;;;;;;;0.48;93.64;97143.03;5050397;28;24446;-76
2022/03/22 03:55:15;;;;;;;13.95;11.25;;;;;;;0.48;93.42;97136.28;5050249;28;24450;-76
2022/03/22 03:57:42;;;;;;;15.68;11.90;;;;;;;0.49;93.64;97139.66;5050110;28;24423;-75
2022/03/22 04:00:09;;;;;;;12.33;10.33;;;;;;;0.49;94.51;97147.31;5050339;28;24423;-75
2022/03/22 04:02:35;;;;;;;15.60;11.80;;;;;;;0.53;93.40;97149.00;5050416;28;24426;-76
2022/03/22 04:05:04;;;;;;;13.93;10.82;;;;;;;0.53;93.19;97146.44;5050193;28;24527;-75
2022/03/22 04:07:30;;;;;;;15.33;11.77;;;;;;;0.44;92.61;97152.41;5049971;28;24975;-75
2022/03/22 04:09:56;;;;;;;13.52;10.75;;;;;;;0.25;93.81;97153.25;5049882;28;24427;-76
2022/03/22 04:12:23;;;;;;;14.13;11.48;;;;;;;0.27;94.93;97146.47;5050408;28;24431;-76
2022/03/22 04:14:51;;;;;;;14.98;11.45;;;;;;;0.25;94.84;97140.53;5050076;28;24450;-76
2022/03/22 04:17:18;;;;;;;12.95;11.55;;;;;;;0.16;94.49;97146.47;5049954;28;24423;-76
2022/03/22 04:19:45;;;;;;;13.15;11.43;;;;;;;0.17;96.36;97147.31;5050005;28;24788;-75
2022/03/22 04:22:13;;;;;;;13.75;11.30;;;;;;;0.22;89.13;97148.16;5050205;28;24522;-76
2022/03/22 04:24:41;;;;;;;12.90;11.60;;;;;;;-0.02;90.93;97141.38;5049985;28;24419;-76
2022/03/22 04:32:44;;;;;;;14.77;11.18;;;;;;;-0.33;93.63;97138.78;5049867;28;25045;-76
2022/03/22 04:35:13;;;;;;;14.10;11.07;;;;;;;-0.31;95.36;97144.72;5050044;28;24450;-75
2022/03/22 04:37:41;;;;;;;14.60;11.07;;;;;;;-0.31;95.44;97133.69;5050992;28;24435;-75
2022/03/22 04:40:08;;;;;;;12.27;10.65;;;;;;;-0.30;95.67;97135.38;5053331;28;24430;-76
2022/03/22 04:42:35;;;;;;;16.85;11.88;;;;;;;-0.31;95.78;97143.88;5053532;28;24430;-75
2022/03/22 04:45:02;;;;;;;14.90;11.33;;;;;;;-0.30;95.62;97140.47;5053565;28;24942;-76
2022/03/22 04:47:29;;;;;;;12.48;11.18;;;;;;;-0.38;95.84;97137.06;5053282;28;24823;-76
2022/03/22 04:49:56;;;;;;;12.43;11.10;;;;;;;-0.40;97.09;97137.09;5053345;28;24477;-76
2022/03/22 04:57:52;;;;;;;15.82;12.77;;;;;;;-0.35;94.67;97143.03;5053147;28;24562;-76
2022/03/22 05:00:19;;;;;;;18.75;14.77;;;;;;;-0.67;100.00;97145.47;5053377;28;24427;-76
2022/03/22 05:02:47;;;;;;;24.95;19.08;;;;;;;-0.69;100.00;97146.34;5053429;28;24424;-75
2022/03/22 05:05:13;;;;;;;19.45;15.32;;;;;;;-0.92;100.00;97147.09;5053220;28;25067;-75
2022/03/22 05:07:40;;;;;;;21.40;15.88;;;;;;;-0.82;100.00;97151.34;5053363;28;24427;-76
2022/03/22 05:10:10;;;;;;;21.65;16.33;;;;;;;-0.94;100.00;97150.47;5052973;28;24562;-76
2022/03/22 05:12:40;;;;;;;21.88;15.52;;;;;;;-0.89;100.00;97151.31;5053095;28;24428;-76
2022/03/22 05:15:09;;;;;;;19.17;14.63;;;;;;;-0.79;100.00;97153.91;5052906;28;24479;-77
2022/03/22 05:17:36;;;;;;;19.60;14.45;;;;;;;-0.75;100.00;97153.09;5053095;28;24426;-76
2022/03/22 05:20:04;;;;;;;20.37;14.57;;;;;;;-0.75;100.00;97158.16;5054701;28;24475;-78
2022/03/22 05:22:31;;;;;;;17.98;13.75;;;;;;;-0.67;100.00;97150.56;5058671;28;24438;-78
2022/03/22 05:24:58;;;;;;;13.98;12.43;;;;;;;-0.58;100.00;97154.84;5058115;28;24465;-79
2022/03/22 05:27:26;;;;;;;15.02;12.57;;;;;;;-0.52;99.96;97157.38;5055546;28;24467;-75
2022/03/22 05:29:52;;;;;;;19.48;13.18;;;;;;;-0.46;97.52;97156.56;5053769;28;24431;-76
2022/03/22 05:32:19;;;;;;;18.47;13.23;;;;;;;-0.48;96.16;97161.66;5054041;28;24485;-77
2022/03/22 05:34:45;;;;;;;17.30;13.63;;;;;;;-0.49;96.17;97162.50;5053355;28;24446;-76
2022/03/22 05:37:13;;;;;;;15.85;12.77;;;;;;;-0.61;99.12;97160.78;5052848;28;24431;-76
2022/03/22 05:39:40;;;;;;;16.20;12.57;;;;;;;-0.62;99.72;97161.63;5058905;28;24438;-77
2022/03/22 05:42:07;;;;;;;20.00;12.57;;;;;;;-0.55;100.00;97160.81;5053599;28;24469;-76
2022/03/22 05:44:35;;;;;;;19.63;13.27;;;;;;;-0.42;100.00;97163.38;5052207;28;24423;-76
2022/03/22 05:47:02;;;;;;;19.85;13.25;;;;;;;-0.28;97.94;97172.75;5052086;28;24427;-77
2022/03/22 05:49:28;;;;;;;20.33;12.98;;;;;;;-0.11;95.36;97172.78;5051953;28;24415;-77
2022/03/22 05:51:56;;;;;;;15.63;12.60;;;;;;;-0.13;94.55;97173.63;5052253;28;24430;-76
2022/03/22 05:54:22;;;;;;;13.95;12.27;;;;;;;-0.26;96.00;97171.06;5051798;28;24991;-77
2022/03/22 05:56:48;;;;;;;13.77;12.10;;;;;;;-0.29;98.73;97173.59;5051839;28;24434;-76
2022/03/22 05:59:15;;;;;;;13.32;11.75;;;;;;;-0.23;99.90;97170.19;5052797;28;24469;-77
2022/03/22 06:01:44;;;;;;;16.42;12.70;;;;;;;-0.12;100.00;97168.50;5056989;28;24489;-76
2022/03/22 06:04:11;;;;;;;15.75;13.27;;;;;;;0.03;99.93;97170.22;5052604;28;24531;-76
2022/03/22 06:06:37;;;;;;;18.85;13.20;;;;;;;0.20;99.46;97176.19;5053037;28;24465;-76
2022/03/22 06:09:04;;;;;;;17.00;14.15;;;;;;;0.35;98.94;97171.97;5051362;28;24438;-75
2022/03/22 06:11:35;;;;;;;17.88;14.65;;;;;;;0.50;97.49;97174.50;5052303;28;24601;-76
2022/03/22 06:14:02;;;;;;;26.88;20.23;;;;;;;0.45;95.18;97173.66;5052246;28;24432;-75
2022/03/22 06:16:29;;;;;;;19.13;16.65;;;;;;;0.46;96.83;97181.28;5056610;28;24964;-75
2022/03/22 06:18:57;;;;;;;21.10;15.90;;;;;;;0.62;96.35;97178.72;5051296;28;25166;-76
2022/03/22 06:21:23;;;;;;;17.13;12.57;;;;;;;0.54;95.27;97173.63;5051293;28;24446;-76
2022/03/22 06:23:50;;;;;;;15.45;12.15;;;;;;;0.48;97.22;97181.28;5051939;28;24434;-76
2022/03/22 06:26:16;;;;;;;14.23;11.00;;;;;;;0.50;97.97;97187.25;5051412;28;24473;-76
2022/03/22 06:28:43;;;;;;;15.15;11.60;;;;;;;0.44;98.84;97177.88;5051403;28;24423;-73
2022/03/22 06:31:09;;;;;;;11.95;10.82;;;;;;;0.40;99.77;97176.19;5050732;28;24432;-74
2022/03/22 06:33:36;;;;;;;14.20;12.15;;;;;;;0.55;100.00;97179.59;5051076;28;24416;-74
2022/03/22 06:36:05;;;;;;;16.17;11.75;;;;;;;0.77;99.32;97177.84;5050958;28;24450;-74
2022/03/22 06:38:32;;;;;;;12.63;11.32;;;;;;;1.00;98.22;97177.78;5051348;28;24435;-75
2022/03/22 06:40:59;;;;;;;13.45;11.48;;;;;;;1.15;96.53;97176.06;5050921;28;24511;-74
2022/03/22 06:43:26;;;;;;;16.40;11.63;;;;;;;1.17;93.75;97169.25;5050946;28;24425;-74
2022/03/22 06:45:52;;;;;;;12.85;11.50;;;;;;;1.12;94.54;97170.13;5050892;28;24422;-75
2022/03/22 06:48:19;;;;;;;16.05;12.60;;;;;;;1.35;95.21;97172.59;5050748;28;24431;-75
2022/03/22 06:50:48;;;;;;;14.25;12.00;;;;;;;1.18;94.40;97167.53;5050897;28;24427;-74
2022/03/22 06:53:16;;;;;;;17.00;12.93;;;;;;;1.32;96.14;97172.59;5044720;28;24432;-74
2022/03/22 06:55:43;;;;;;;14.77;12.00;;;;;;;1.67;94.76;97175.00;5037331;28;24459;-74
2022/03/22 06:58:11;;;;;;;15.32;11.25;;;;;;;1.62;93.46;97179.25;5034493;28;24447;-76
2022/03/22 07:00:38;;;;;;;15.23;12.20;;;;;;;1.57;93.41;97169.09;5030538;28;24439;-73
2022/03/22 07:03:05;;;;;;;15.13;12.05;;;;;;;1.89;94.69;97168.03;5031030;28;24422;-73
2022/03/22 07:05:32;;;;;;;17.87;12.37;;;;;;;2.06;90.77;97176.44;5031152;28;24415;-73
2022/03/22 07:07:59;;;;;;;26.77;13.55;;;;;;;1.91;90.92;97177.41;5041663;23;24474;-73
2022/03/22 07:10:27;;;;;;;15.18;12.00;;;;;;;2.03;91.33;97176.47;5050315;28;24414;-73
2022/03/22 07:12:55;;;;;;;16.33;11.82;;;;;;;2.17;89.69;97179.78;5050678;28;24423;-72
2022/03/22 07:15:23;;;;;;;18.35;12.68;;;;;;;2.09;89.32;97181.53;5050409;28;24808;-72
2022/03/22 07:17:52;;;;;;;19.65;13.02;;;;;;;2.48;90.03;97183.81;5050886;28;24423;-72
2022/03/22 07:20:19;;;;;;;27.48;13.13;;;;;;;3.04;92.03;97180.72;5050570;28;24426;-74
2022/03/22 07:22:46;;;;;;;21.75;14.23;;;;;;;3.43;94.90;97186.25;5050690;28;24477;-73
2022/03/22 07:25:12;;;;;;;19.98;14.10;;;;;;;3.61;94.22;97183.47;5050735;28;24415;-73
2022/03/22 07:27:40;;;;;;;18.63;13.48;;;;;;;3.61;85.69;97183.47;5050558;28;24419;-74
2022/03/22 07:30:10;;;;;;;16.67;12.45;;;;;;;3.68;82.31;97178.28;5050085;28;24788;-72
2022/03/22 07:32:36;;;;;;;14.87;11.93;;;;;;;3.64;80.26;97169.78;5050640;28;24525;-74
2022/03/22 07:35:03;;;;;;;15.30;12.00;;;;;;;3.97;80.40;97182.97;5050205;28;24439;-74
2022/03/22 07:37:30;;;;;;;14.70;11.40;;;;;;;4.47;79.65;97184.78;5050495;28;24432;-74
2022/03/22 07:39:57;;;;;;;19.67;12.43;;;;;;;4.71;75.26;97182.69;5050398;28;24427;-74
2022/03/22 07:42:27;;;;;;;16.58;12.38;;;;;;;4.24;77.32;97179.19;5050226;28;24485;-73
2022/03/22 07:44:56;;;;;;;21.63;12.50;;;;;;;4.19;77.54;97189.50;5050132;28;24442;-74
2022/03/22 07:47:23;;;;;;;17.90;12.60;;;;;;;3.78;79.36;97177.25;5049527;28;24968;-73
2022/03/22 07:55:18;;;;;;;14.53;12.17;;;;;;;4.34;77.63;97175.59;5030990;28;24444;-73
2022/03/22 07:57:45;;;;;;;15.63;11.98;;;;;;;4.36;77.83;97176.41;5030195;28;24871;-73
2022/03/22 08:00:14;;;;;;;14.75;13.02;;;;;;;4.61;76.19;97177.72;5030286;28;24991;-74
2022/03/22 08:02:50;;;;;;;16.00;11.50;;;;;;;5.07;76.16;97174.31;5030785;28;24470;-74
2022/03/22 08:05:17;;;;;;;15.70;12.40;;;;;;;5.65;74.57;97172.34;5030334;28;24431;-74
2022/03/22 08:07:43;;;;;;;19.10;12.20;;;;;;;6.15;72.36;97182.44;5030016;28;24530;-74
2022/03/22 08:10:10;;;;;;;18.27;11.80;;;;;;;6.55;70.32;97178.03;5030279;28;24782;-74
2022/03/22 08:12:36;;;;;;;16.70;13.00;;;;;;;7.25;71.35;97180.53;5031756;28;24515;-74
2022/03/22 08:15:04;;;;;;;18.08;12.63;;;;;;;7.48;68.52;97194.53;5034306;28;24494;-75
2022/03/22 08:17:32;;;;;;;21.02;13.00;;;;;;;7.70;69.81;97199.91;5033964;28;24443;-75
2022/03/22 08:19:58;;;;;;;19.50;14.40;;;;;;;7.84;71.62;97195.22;5033665;28;24435;-74
2022/03/22 08:22:25;;;;;;;17.45;13.07;;;;;;;8.08;65.50;97197.94;5033684;28;24431;-74
2022/03/22 08:24:52;;;;;;;20.77;13.35;;;;;;;8.35;63.57;97193.69;5033917;28;24434;-75
2022/03/22 08:27:19;;;;;;;17.55;13.00;;;;;;;8.45;58.16;97197.69;5035177;28;24455;-75
2022/03/22 08:29:46;;;;;;;15.38;12.80;;;;;;;8.20;58.43;97195.03;5052727;28;24979;-75
2022/03/22 08:32:12;;;;;;;17.27;13.00;;;;;;;8.13;55.15;97191.78;5054403;28;24498;-74
2022/03/22 08:34:40;;;;;;;17.38;12.90;;;;;;;8.18;55.21;97186.47;5045566;28;24428;-74
2022/03/22 08:37:07;;;;;;;16.42;12.45;;;;;;;8.22;55.12;97186.31;5034083;28;20803;-77
2022/03/22 08:39:33;;;;;;;14.95;12.73;;;;;;;8.15;54.31;97187.38;5033661;28;24443;-75
2022/03/22 08:42:00;;;;;;;16.85;12.82;;;;;;;8.23;54.33;97182.88;5040250;28;24978;-75
2022/03/22 08:44:26;;;;;;;14.75;12.95;;;;;;;8.28;51.43;97179.28;5054143;28;24439;-75
2022/03/22 08:46:52;;;;;;;19.45;12.40;;;;;;;8.47;54.15;97176.09;5054210;28;24431;-75
2022/03/22 08:49:19;;;;;;;15.40;13.20;;;;;;;8.63;52.35;97185.94;5054125;28;24910;-74
2022/03/22 08:51:49;;;;;;;19.85;12.95;;;;;;;8.80;51.28;97185.41;5052239;28;24435;-74
2022/03/22 08:54:17;;;;;;;18.80;13.73;;;;;;;9.32;50.60;97175.84;5034624;28;20834;-75
2022/03/22 08:56:43;;;;;;;19.33;13.65;;;;;;;9.12;51.04;97173.94;5034614;28;20783;-75
2022/03/22 08:59:10;;;;;;;19.77;12.40;;;;;;;9.85;48.58;97170.47;5035182;28;20776;-75
2022/03/22 09:01:36;;;;;;;15.50;12.55;;;;;;;10.04;47.42;97170.63;5033638;28;20760;-75
2022/03/22 09:06:50;;;;;;;22.02;13.45;;;;;;;9.92;46.71;97169.34;5032220;28;24801;-75
2022/03/22 09:09:17;;;;;;;17.90;13.20;;;;;;;9.98;46.19;97165.69;5032685;28;21410;-73
2022/03/22 09:11:43;;;;;;;17.10;12.82;;;;;;;10.07;45.94;97167.91;5033316;28;20827;-73
2022/03/22 09:14:09;;;;;;;15.30;12.50;;;;;;;10.74;44.74;97167.00;5033200;28;20772;-73
2022/03/22 09:16:37;;;;;;;17.75;12.48;;;;;;;11.29;41.42;97168.13;5035115;28;24446;-73
2022/03/22 09:19:03;;;;;;;15.57;12.38;;;;;;;11.59;41.19;97162.50;5040007;28;24844;-74
2022/03/22 09:21:30;;;;;;;17.90;12.75;;;;;;;11.39;40.07;97161.63;5014317;28;24432;-75
2022/03/22 09:23:58;;;;;;;15.20;12.55;;;;;;;11.42;39.22;97164.97;5013261;28;24881;-77
2022/03/22 09:26:25;;;;;;;17.98;12.57;;;;;;;11.36;40.43;97159.16;5015900;28;24443;-74
2022/03/22 09:28:52;;;;;;;13.98;12.30;;;;;;;11.35;42.08;97165.25;5032496;28;25043;-75
2022/03/22 09:31:19;;;;;;;18.45;12.23;;;;;;;11.89;42.13;97162.03;5033540;28;24444;-74
2022/03/22 09:33:48;;;;;;;19.37;12.93;;;;;;;11.95;40.87;97161.78;5033101;28;24493;-75
2022/03/22 09:36:15;;;;;;;24.45;12.65;;;;;;;11.81;40.32;97160.59;5032918;28;24487;-75
2022/03/22 09:38:41;;;;;;;16.58;12.02;;;;;;;12.58;41.35;97157.03;5032739;28;24503;-74
2022/03/22 09:41:13;;;;;;;16.75;12.63;;;;;;;12.48;39.60;97161.00;5032524;28;24436;-74
2022/03/22 09:43:42;;;;;;;12.88;11.10;;;;;;;12.70;40.81;97159.03;5033216;28;24411;-74
2022/03/22 09:46:09;;;;;;;13.25;10.73;;;;;;;13.56;44.95;97154.69;5032929;28;24423;-74
2022/03/22 09:48:37;;;;;;;12.77;10.47;;;;;;;13.38;37.12;97158.25;5032888;28;25023;-74
2022/03/22 09:53:48;;;;;;;14.88;10.25;;;;;;;13.90;37.16;97153.72;5032325;28;24547;-75
2022/03/22 09:56:16;;;;;;;17.60;10.85;;;;;;;14.37;37.09;97150.28;5032534;28;24852;-74
2022/03/22 09:58:42;;;;;;;16.60;9.75;;;;;;;14.68;37.04;97159.00;5032211;28;24428;-75
2022/03/22 10:01:10;;;;;;;12.77;9.53;;;;;;;14.63;32.33;97154.06;5032314;28;24431;-74
2022/03/22 10:03:37;;;;;;;13.82;10.35;;;;;;;14.75;37.81;97144.69;5032332;28;24459;-75
2022/03/22 10:06:07;;;;;;;14.68;10.07;;;;;;;15.22;35.49;97152.34;5017068;28;24552;-74
2022/03/22 10:08:37;;;;;;;17.17;9.15;;;;;;;15.34;36.71;97149.94;5013220;28;24447;-75
2022/03/22 10:11:04;;;;;;;17.15;9.32;;;;;;;15.36;36.39;97153.31;5013075;28;24428;-75
2022/03/22 10:13:35;;;;;;;12.48;10.50;;;;;;;15.03;33.81;97146.56;5013117;28;24918;-74
2022/03/22 10:16:02;;;;;;;14.45;9.60;;;;;;;15.13;33.67;97147.69;5012374;28;24494;-73
2022/03/22 10:18:29;;;;;;;11.82;8.95;;;;;;;14.99;33.80;97143.28;5012900;28;24984;-76
2022/03/22 10:21:00;;;;;;;19.85;8.75;;;;;;;14.41;31.77;97151.81;5014022;28;24495;-76
2022/03/22 10:23:28;;;;;;;12.68;7.55;;;;;;;14.89;34.49;97154.34;5013886;28;24429;-78
2022/03/22 10:26:03;;;;;;;20.85;9.57;;;;;;;15.17;34.73;97143.13;5013220;28;24492;-75
2022/03/22 10:28:31;;;;;;;14.20;9.20;;;;;;;15.08;36.25;97141.06;5013269;28;24531;-76
2022/03/22 10:30:58;;;;;;;15.48;10.02;;;;;;;15.28;38.15;97140.72;5039874;28;24442;-75
2022/03/22 10:33:25;;;;;;;14.07;10.15;;;;;;;15.44;35.70;97143.25;5052906;28;24419;-76
2022/03/22 10:35:51;;;;;;;13.73;9.82;;;;;;;15.41;35.90;97135.59;5052485;28;24496;-76
2022/03/22 10:38:19;;;;;;;12.57;9.18;;;;;;;15.17;34.69;97138.75;5052903;28;24427;-76
2022/03/22 10:40:47;;;;;;;12.98;9.27;;;;;;;15.27;36.17;97131.19;5052168;28;24518;-75
2022/03/22 10:43:15;;;;;;;11.77;8.75;;;;;;;15.44;33.93;97131.03;5052623;28;24837;-75
2022/03/22 10:45:45;;;;;;;12.30;9.77;;;;;;;15.23;32.65;97132.31;5054212;28;24828;-76
2022/03/22 10:48:16;;;;;;;12.55;9.88;;;;;;;15.46;40.16;97126.56;5054667;28;24435;-75
2022/03/22 10:50:47;;;;;;;14.30;10.45;;;;;;;15.41;39.53;97127.75;5051997;28;24451;-75
2022/03/22 10:53:15;;;;;;;12.98;8.60;;;;;;;15.45;31.77;97132.69;5051156;28;24454;-75
2022/03/22 10:55:43;;;;;;;9.38;7.53;;;;;;;15.29;33.18;97141.56;5050992;28;24868;-76
2022/03/22 10:58:12;;;;;;;18.08;9.05;;;;;;;15.15;34.58;97131.94;5050632;28;24427;-77
2022/03/22 11:00:42;;;;;;;13.73;8.95;;;;;;;14.66;29.84;97130.44;5050815;28;24431;-77
2022/03/22 11:03:11;;;;;;;13.60;8.15;;;;;;;14.37;31.21;97136.44;5050860;28;24434;-76
2022/03/22 11:05:40;;;;;;;14.05;8.70;;;;;;;14.93;32.36;97133.19;5050807;28;24627;-76
2022/03/22 11:08:07;;;;;;;9.80;7.53;;;;;;;14.55;29.47;97129.38;5050382;28;24982;-77
2022/03/22 11:10:33;;;;;;;11.68;7.35;;;;;;;14.35;28.72;97138.25;5050470;28;24454;-76
2022/03/22 11:13:01;;;;;;;8.70;6.43;;;;;;;14.56;33.24;97131.03;5050389;28;24434;-76
2022/03/22 11:15:32;;;;;;;8.68;7.10;;;;;;;14.40;29.04;97133.66;5050726;28;24473;-77
2022/03/22 11:17:58;;;;;;;13.35;7.10;;;;;;;14.96;32.45;97129.59;5039180;28;24428;-77
2022/03/22 11:20:27;;;;;;;9.88;6.80;;;;;;;14.73;30.75;97134.38;5030473;28;24435;-77
2022/03/22 11:22:56;;;;;;;12.13;7.17;;;;;;;14.26;30.13;97131.81;5030624;28;24504;-77
2022/03/22 11:25:27;;;;;;;14.98;8.20;;;;;;;14.07;29.44;97125.94;5030366;28;24416;-77
2022/03/22 11:27:57;;;;;;;11.38;7.50;;;;;;;14.01;33.81;97124.50;5032227;28;24434;-77
2022/03/22 11:30:25;;;;;;;9.82;7.63;;;;;;;14.16;32.42;97115.84;5038620;28;24473;-77
2022/03/22 11:35:50;;;;;;;12.90;8.77;;;;;;;13.96;30.16;97116.13;5037027;28;24432;-77
2022/03/22 11:38:39;;;;;;;16.13;9.45;;;;;;;13.97;31.79;97123.81;5038232;28;24431;-77
2022/03/22 11:43:50;;;;;;;21.52;10.02;;;;;;;14.41;32.54;97117.91;5031080;28;24439;-77
2022/03/22 11:46:16;;;;;;;16.27;9.75;;;;;;;14.41;35.70;97102.28;5032485;28;24797;-78
2022/03/22 11:48:43;;;;;;;15.82;10.05;;;;;;;14.64;35.34;97105.38;5035100;28;24431;-75
2022/03/22 11:51:11;;;;;;;15.32;10.88;;;;;;;14.14;31.17;97114.25;5035430;28;24419;-77
2022/03/22 11:53:45;;;;;;;18.00;11.65;;;;;;;13.89;31.17;97105.19;5036292;28;24420;-77
2022/03/22 11:56:12;;;;;;;16.30;11.45;;;;;;;13.79;32.58;97104.00;5034193;28;24451;-76
2022/03/22 11:58:49;;;;;;;25.17;12.45;;;;;;;13.96;33.10;97095.28;5034106;28;24439;-77